Time;durP1;ratioP1;P1;durP2;ratioP2;P2;SDS_P1;SDS_P2;PMS_P1;PMS_P2;Temp;Humidity;BMP_temperature;BMP_pressure;BME280_temperature;BME280_humidity;BME280_pressure;Samples;Min_cycle;Max_cycle;Signal;HPM_P1;HPM_P2
2023/10/22 00:01:36;;;;;;;;;3.00;2.50;;;;;14.46;72.27;99560.56;5098645;27;61021;-71
2023/10/22 00:04:03;;;;;;;;;3.00;2.00;;;;;14.49;72.79;99576.19;5105549;27;45531;-71
2023/10/22 00:06:29;;;;;;;;;0.00;0.00;;;;;14.46;72.86;99569.31;5102802;27;45444;-71
2023/10/22 00:08:54;;;;;;;;;4.50;3.00;;;;;14.51;72.66;99577.78;5101106;27;64819;-71
2023/10/22 00:11:19;;;;;;;;;4.50;2.00;;;;;14.50;72.57;99577.88;5101030;27;53300;-72
2023/10/22 00:13:45;;;;;;;;;2.75;2.25;;;;;14.53;72.41;99585.59;5102613;27;59289;-71
2023/10/22 00:16:10;;;;;;;;;7.50;2.00;;;;;14.53;72.13;99588.22;5100691;27;69674;-71
2023/10/22 00:18:35;;;;;;;;;2.00;2.00;;;;;14.53;71.95;99594.31;5101538;27;47079;-71
2023/10/22 00:21:00;;;;;;;;;3.25;2.25;;;;;14.55;72.46;99594.22;5102511;27;49524;-72
2023/10/22 00:23:26;;;;;;;;;4.50;2.00;;;;;14.56;72.24;99595.94;5113457;27;56413;-72
2023/10/22 00:25:51;;;;;;;;;4.25;1.25;;;;;14.54;72.01;99603.91;5116806;27;45405;-72
2023/10/22 00:28:17;;;;;;;;;5.00;2.00;;;;;14.54;71.78;99595.19;5101724;27;45359;-71
2023/10/22 00:30:42;;;;;;;;;4.25;2.50;;;;;14.55;71.82;99594.22;5100527;27;67509;-72
2023/10/22 00:33:07;;;;;;;;;6.50;2.00;;;;;14.58;71.65;99609.88;5109938;27;74248;-71
2023/10/22 00:35:33;;;;;;;;;4.50;1.75;;;;;14.59;72.00;99616.84;5139197;27;45346;-71
2023/10/22 00:37:58;;;;;;;;;6.25;3.75;;;;;14.56;71.82;99599.41;5122628;27;57912;-72
2023/10/22 00:40:23;;;;;;;;;2.00;1.00;;;;;14.57;71.69;99609.00;5119157;27;61708;-72
2023/10/22 00:42:49;;;;;;;;;3.50;2.00;;;;;14.54;71.20;99605.72;5118082;27;70133;-71
2023/10/22 00:45:14;;;;;;;;;4.50;3.00;;;;;14.57;71.47;99618.66;5121563;27;45205;-72
2023/10/22 00:47:39;;;;;;;;;6.00;2.00;;;;;14.57;71.81;99616.03;5121667;27;45366;-71
2023/10/22 00:50:06;;;;;;;;;6.25;2.00;;;;;14.59;71.09;99614.22;5120767;27;69345;-72
2023/10/22 00:52:32;;;;;;;;;3.25;1.75;;;;;14.57;71.18;99619.53;5120424;27;45495;-71
2023/10/22 00:54:58;;;;;;;;;4.50;2.50;;;;;14.59;71.20;99628.22;5103940;27;45403;-71
2023/10/22 00:57:23;;;;;;;;;1.00;1.00;;;;;14.60;71.10;99632.53;5102179;27;45244;-71
2023/10/22 00:59:52;;;;;;;;;5.25;1.00;;;;;14.62;70.99;99632.44;5118482;27;58985;-71
2023/10/22 01:02:19;;;;;;;;;3.75;1.00;;;;;14.64;71.14;99627.06;5110859;27;46199;-71
2023/10/22 01:04:44;;;;;;;;;6.00;1.75;;;;;14.57;70.63;99622.16;5089176;27;45783;-71
2023/10/22 01:07:10;;;;;;;;;5.75;1.75;;;;;14.61;70.72;99630.75;5114114;27;65206;-71
2023/10/22 01:09:35;;;;;;;;;4.25;1.00;;;;;14.60;70.86;99636.94;5120335;27;67386;-71
2023/10/22 01:12:02;;;;;;;;;1.00;1.00;;;;;14.57;70.31;99637.97;5121246;27;46406;-71
2023/10/22 01:14:28;;;;;;;;;6.25;1.75;;;;;14.57;70.34;99642.38;5103745;27;45785;-71
2023/10/22 01:16:53;;;;;;;;;4.00;1.00;;;;;14.55;70.78;99642.44;5122984;27;45361;-71
2023/10/22 01:19:18;;;;;;;;;6.00;2.25;;;;;14.55;70.44;99642.44;5137913;27;58914;-71
2023/10/22 01:21:44;;;;;;;;;4.50;2.00;;;;;14.55;70.70;99658.25;5109015;27;71224;-72
2023/10/22 01:24:09;;;;;;;;;6.50;1.00;;;;;14.54;70.71;99658.38;5113490;27;71850;-71
2023/10/22 01:26:41;;;;;;;;;2.25;1.75;;;;;14.54;70.30;99655.75;5106215;27;50062;-71
2023/10/22 01:29:07;;;;;;;;;3.00;0.00;;;;;14.53;70.31;99657.50;5100437;27;45514;-72
2023/10/22 01:31:32;;;;;;;;;3.00;1.75;;;;;14.52;70.14;99665.50;5100496;27;45436;-72
2023/10/22 01:33:57;;;;;;;;;6.25;0.00;;;;;14.55;70.23;99660.03;5110069;27;62805;-71
2023/10/22 01:36:23;;;;;;;;;6.50;0.75;;;;;14.51;70.01;99656.75;5101306;27;60076;-70
2023/10/22 01:38:48;;;;;;;;;5.75;2.50;;;;;14.51;69.68;99669.91;5106275;27;45563;-72
2023/10/22 01:41:13;;;;;;;;;2.75;2.50;;;;;14.44;69.97;99664.16;5108060;27;65107;-72
2023/10/22 01:43:39;;;;;;;;;5.00;2.00;;;;;14.43;69.84;99664.28;5112023;27;71399;-70
2023/10/22 01:46:04;;;;;;;;;2.00;2.00;;;;;14.46;69.89;99679.03;5120879;27;45284;-71
2023/10/22 01:48:30;;;;;;;;;3.75;1.50;;;;;14.46;70.19;99679.03;5102616;27;45331;-72
2023/10/22 01:50:55;;;;;;;;;3.00;2.00;;;;;14.41;70.04;99667.00;5099043;27;73489;-71
2023/10/22 01:53:20;;;;;;;;;2.75;1.50;;;;;14.42;69.86;99673.94;5108031;27;74980;-72
2023/10/22 01:55:46;;;;;;;;;4.75;2.50;;;;;14.39;70.09;99671.50;5120578;27;45386;-72
2023/10/22 01:58:11;;;;;;;;;2.00;1.00;;;;;14.40;69.68;99678.47;5121811;27;45333;-72
2023/10/22 02:00:36;;;;;;;;;4.25;2.50;;;;;14.41;69.75;99688.06;5120166;27;57812;-71
2023/10/22 02:03:02;;;;;;;;;4.50;1.25;;;;;14.40;69.69;99689.00;5115217;27;45455;-71
2023/10/22 02:05:32;;;;;;;;;5.50;2.00;;;;;14.39;69.70;99689.06;5093734;27;45357;-72
2023/10/22 02:07:57;;;;;;;;;2.25;1.75;;;;;14.36;69.87;99682.22;5102503;27;45289;-71
2023/10/22 02:10:23;;;;;;;;;3.25;1.00;;;;;14.36;70.08;99692.75;5120717;27;70106;-71
2023/10/22 02:12:48;;;;;;;;;3.00;2.00;;;;;14.40;70.13;99701.31;5117049;27;45388;-71
2023/10/22 02:15:13;;;;;;;;;4.00;2.00;;;;;14.40;69.41;99704.78;5098759;27;65591;-72
2023/10/22 02:17:39;;;;;;;;;3.75;1.50;;;;;14.35;69.96;99690.22;5116394;27;68876;-71
2023/10/22 02:20:08;;;;;;;;;2.00;0.50;;;;;14.39;69.70;99708.34;5103169;27;45358;-72
2023/10/22 02:22:34;;;;;;;;;3.50;1.75;;;;;14.39;69.70;99710.97;5118183;27;45533;-72
2023/10/22 02:24:59;;;;;;;;;2.75;1.00;;;;;14.36;69.53;99708.53;5110061;27;45464;-71
2023/10/22 02:27:24;;;;;;;;;3.50;1.00;;;;;14.35;69.33;99717.38;5103026;27;65319;-71
2023/10/22 02:29:49;;;;;;;;;2.00;1.25;;;;;14.31;69.58;99715.88;5098947;27;66469;-72
2023/10/22 02:32:15;;;;;;;;;2.00;1.00;;;;;14.31;69.72;99728.19;5103062;27;68769;-72
2023/10/22 02:34:40;;;;;;;;;2.00;1.00;;;;;14.31;69.58;99728.19;5119879;27;45233;-72
2023/10/22 02:37:06;;;;;;;;;1.75;1.75;;;;;14.31;69.74;99720.28;5120380;27;64417;-72
2023/10/22 02:39:31;;;;;;;;;4.00;1.00;;;;;14.29;69.41;99728.28;5107811;27;71575;-72
2023/10/22 02:41:57;;;;;;;;;3.00;2.00;;;;;14.30;69.46;99740.47;5100110;27;47870;-71
2023/10/22 02:44:22;;;;;;;;;3.50;1.25;;;;;14.29;69.48;99730.03;5101917;27;45224;-71
2023/10/22 02:46:47;;;;;;;;;4.00;1.00;;;;;14.27;69.54;99732.78;5120056;27;45224;-72
2023/10/22 02:49:13;;;;;;;;;5.25;1.00;;;;;14.29;69.76;99751.97;5101672;27;72737;-69
2023/10/22 02:51:38;;;;;;;;;3.25;1.00;;;;;14.25;69.51;99739.88;5119989;27;72175;-71
2023/10/22 02:54:04;;;;;;;;;3.25;1.00;;;;;14.24;69.70;99746.09;5118026;27;45395;-71
2023/10/22 02:56:29;;;;;;;;;5.50;1.50;;;;;14.23;69.84;99747.88;5120964;27;45324;-72
2023/10/22 02:58:54;;;;;;;;;3.50;2.00;;;;;14.24;69.90;99754.84;5101710;27;71906;-72
2023/10/22 03:01:20;;;;;;;;;3.00;0.50;;;;;14.22;69.62;99754.09;5119589;27;45341;-72
2023/10/22 03:03:45;;;;;;;;;6.00;1.75;;;;;14.23;69.83;99758.41;5107606;27;45410;-72
2023/10/22 03:06:11;;;;;;;;;1.25;0.75;;;;;14.27;69.71;99759.09;5098952;27;45488;-72
2023/10/22 03:08:41;;;;;;;;;1.00;1.00;;;;;14.30;69.91;99763.31;5099171;27;45272;-72
2023/10/22 03:11:15;;;;;;;;;2.25;1.00;;;;;14.33;69.94;99765.78;5081563;27;45253;-72
2023/10/22 03:13:40;;;;;;;;;3.75;2.50;;;;;14.33;70.00;99766.63;5100417;27;45307;-71
2023/10/22 03:16:07;;;;;;;;;2.00;2.00;;;;;14.33;70.32;99777.16;5099741;27;51284;-72
2023/10/22 03:18:33;;;;;;;;;4.75;1.00;;;;;14.31;70.52;99772.94;5099173;27;46093;-72
2023/10/22 03:20:58;;;;;;;;;3.00;1.00;;;;;14.30;71.24;99774.69;5100934;27;45560;-72
2023/10/22 03:23:23;;;;;;;;;3.00;1.00;;;;;14.29;70.57;99780.91;5113685;27;58297;-72
2023/10/22 03:25:50;;;;;;;;;3.00;1.50;;;;;14.27;70.23;99780.16;5117854;27;69444;-72
2023/10/22 03:28:15;;;;;;;;;7.75;2.00;;;;;14.22;70.49;99763.78;5102555;27;45480;-72
2023/10/22 03:30:41;;;;;;;;;2.00;1.00;;;;;14.27;70.60;99777.53;5101444;27;71662;-72
2023/10/22 03:33:07;;;;;;;;;4.00;1.25;;;;;14.27;70.22;99776.66;5101777;27;45372;-71
2023/10/22 03:35:35;;;;;;;;;6.50;0.25;;;;;14.25;70.26;99776.72;5105421;27;45394;-69
2023/10/22 03:38:00;;;;;;;;;4.25;2.00;;;;;14.24;70.32;99785.59;5122564;27;45372;-70
2023/10/22 03:40:26;;;;;;;;;6.75;2.00;;;;;14.23;70.40;99776.81;5102506;27;45329;-69
2023/10/22 03:42:51;;;;;;;;;3.00;1.00;;;;;14.24;70.23;99790.84;5108599;27;45448;-70
2023/10/22 03:45:16;;;;;;;;;2.75;1.25;;;;;14.24;70.43;99786.41;5103085;27;55778;-72
2023/10/22 03:47:42;;;;;;;;;1.25;1.00;;;;;14.23;70.29;99792.59;5102272;27;71121;-71
2023/10/22 03:50:07;;;;;;;;;4.75;0.75;;;;;14.24;70.30;99804.00;5102196;27;45279;-70
2023/10/22 03:52:33;;;;;;;;;1.00;1.00;;;;;14.21;70.37;99807.63;5106242;27;45263;-72
2023/10/22 03:54:58;;;;;;;;;2.25;2.00;;;;;14.20;70.51;99815.63;5104358;27;45400;-70
2023/10/22 03:57:24;;;;;;;;;2.00;0.25;;;;;14.19;70.23;99813.94;5102373;27;70068;-70
2023/10/22 03:59:49;;;;;;;;;0.50;0.50;;;;;14.17;70.04;99815.81;5116901;27;45456;-70
2023/10/22 04:02:14;;;;;;;;;4.25;0.75;;;;;14.17;70.73;99821.91;5093316;27;53573;-70
2023/10/22 04:04:40;;;;;;;;;3.25;0.25;;;;;14.17;71.11;99827.19;5103878;27;64520;-70
2023/10/22 04:07:05;;;;;;;;;4.00;1.00;;;;;14.16;70.90;99832.53;5101572;27;45300;-70
2023/10/22 04:09:30;;;;;;;;;4.25;1.00;;;;;14.12;71.11;99831.84;5101496;27;45357;-70
2023/10/22 04:11:56;;;;;;;;;3.00;1.00;;;;;14.16;71.21;99837.78;5101359;27;53484;-70
2023/10/22 04:14:21;;;;;;;;;0.00;0.00;;;;;14.15;71.09;99833.47;5119936;27;45494;-71
2023/10/22 04:16:51;;;;;;;;;1.25;0.50;;;;;14.15;71.26;99849.25;5122023;27;53131;-72
2023/10/22 04:19:17;;;;;;;;;2.00;0.75;;;;;14.18;70.47;99846.44;5123685;27;45261;-71
2023/10/22 04:21:42;;;;;;;;;2.50;1.00;;;;;14.17;71.24;99840.34;5122951;27;62068;-71
2023/10/22 04:24:08;;;;;;;;;4.00;2.00;;;;;14.18;70.95;99857.84;5117853;27;63551;-71
2023/10/22 04:26:33;;;;;;;;;2.00;1.00;;;;;14.17;71.16;99857.91;5117088;27;48678;-71
2023/10/22 04:28:59;;;;;;;;;1.00;1.00;;;;;14.16;70.77;99853.56;5118040;27;45424;-71
2023/10/22 04:31:24;;;;;;;;;1.50;1.00;;;;;14.17;70.98;99861.38;5101834;27;58944;-71
2023/10/22 04:33:49;;;;;;;;;1.00;0.00;;;;;14.20;71.29;99870.88;5093358;27;60644;-71
2023/10/22 04:36:16;;;;;;;;;2.00;1.00;;;;;14.20;70.55;99871.75;5111706;27;66491;-71
2023/10/22 04:38:41;;;;;;;;;2.25;0.75;;;;;14.19;70.79;99871.84;5120259;27;45332;-71
2023/10/22 04:41:13;;;;;;;;;6.25;1.00;;;;;14.22;71.00;99887.47;5123120;27;45274;-71
2023/10/22 04:43:38;;;;;;;;;1.25;0.50;;;;;14.21;70.75;99889.22;5118978;27;45377;-71
2023/10/22 04:46:04;;;;;;;;;2.00;1.00;;;;;14.19;70.76;99887.63;5110576;27;45847;-71
2023/10/22 04:48:31;;;;;;;;;2.75;1.00;;;;;14.19;70.55;99888.47;5101131;27;45361;-71
2023/10/22 04:50:59;;;;;;;;;5.00;1.00;;;;;14.20;70.72;99894.56;5102567;27;45386;-71
2023/10/22 04:53:25;;;;;;;;;5.25;2.00;;;;;14.21;70.91;99902.38;5084526;27;45820;-71
2023/10/22 04:55:54;;;;;;;;;7.25;2.00;;;;;14.22;70.42;99906.72;5102200;27;46632;-71
2023/10/22 04:58:20;;;;;;;;;4.00;2.75;;;;;14.21;70.53;99912.06;5106467;27;45504;-71
2023/10/22 05:00:49;;;;;;;;;2.00;1.00;;;;;14.19;70.70;99906.88;5104028;27;59400;-71
2023/10/22 05:03:14;;;;;;;;;2.00;0.00;;;;;14.18;70.47;99910.47;5109958;27;45311;-71
2023/10/22 05:05:40;;;;;;;;;2.25;0.75;;;;;14.16;70.43;99903.56;5108891;27;47887;-71
2023/10/22 05:08:05;;;;;;;;;2.75;0.00;;;;;14.15;70.50;99909.78;5082531;27;71016;-71
2023/10/22 05:10:37;;;;;;;;;5.50;1.00;;;;;14.16;70.39;99917.56;5100753;27;45289;-71
2023/10/22 05:13:02;;;;;;;;;3.00;1.25;;;;;14.18;70.39;99934.16;5107462;27;45454;-71
2023/10/22 05:15:27;;;;;;;;;4.50;0.75;;;;;14.17;70.19;99929.81;5137761;27;47745;-71
2023/10/22 05:17:54;;;;;;;;;3.75;0.75;;;;;14.17;70.63;99935.06;5121884;27;59734;-71
2023/10/22 05:20:21;;;;;;;;;3.25;1.25;;;;;14.13;70.32;99941.44;5122791;27;45313;-71
2023/10/22 05:22:48;;;;;;;;;4.25;1.25;;;;;14.13;70.23;99944.06;5106438;27;45496;-71
2023/10/22 05:25:14;;;;;;;;;1.00;1.00;;;;;14.15;70.52;99941.34;5120635;27;45510;-71
2023/10/22 05:27:39;;;;;;;;;5.00;1.00;;;;;14.18;70.27;99951.69;5102141;27;45325;-71
2023/10/22 05:30:05;;;;;;;;;4.25;0.50;;;;;14.15;70.10;99952.72;5100256;27;50052;-71
2023/10/22 05:32:31;;;;;;;;;9.25;1.00;;;;;14.14;70.08;99950.16;5085698;27;45650;-71
2023/10/22 05:34:56;;;;;;;;;4.00;1.00;;;;;14.18;70.25;99965.72;5108989;27;54149;-71
2023/10/22 05:37:22;;;;;;;;;3.50;1.00;;;;;14.19;70.39;99967.41;5101532;27;45294;-71
2023/10/22 05:39:48;;;;;;;;;1.00;0.00;;;;;14.18;69.88;99965.72;5116020;27;45291;-71
2023/10/22 05:42:13;;;;;;;;;3.25;1.50;;;;;14.20;70.18;99968.25;5100364;27;45917;-71
2023/10/22 05:44:39;;;;;;;;;2.00;0.00;;;;;14.14;70.02;99961.53;5119940;27;61559;-71
2023/10/22 05:47:04;;;;;;;;;1.75;1.50;;;;;14.19;70.31;99977.94;5120208;27;61482;-71
2023/10/22 05:49:30;;;;;;;;;3.00;1.00;;;;;14.22;70.09;99977.78;5122084;27;45438;-71
2023/10/22 05:51:55;;;;;;;;;1.00;1.00;;;;;14.24;69.98;99988.22;5121796;27;50062;-71
2023/10/22 05:54:20;;;;;;;;;4.25;1.75;;;;;14.24;70.09;99985.59;5105468;27;46187;-71
2023/10/22 05:56:46;;;;;;;;;2.00;0.00;;;;;14.24;70.03;99989.06;5101299;27;45279;-71
2023/10/22 05:59:11;;;;;;;;;2.00;2.00;;;;;14.27;69.99;99988.06;5114221;27;45148;-71
2023/10/22 06:01:41;;;;;;;;;1.00;1.00;;;;;14.26;69.69;99986.34;5120627;27;45601;-71
2023/10/22 06:04:07;;;;;;;;;2.00;0.00;;;;;14.30;70.10;99993.13;5118443;27;48225;-71
2023/10/22 06:06:32;;;;;;;;;1.50;1.50;;;;;14.30;69.65;99992.28;5101751;27;45383;-71
2023/10/22 06:08:58;;;;;;;;;3.00;0.50;;;;;14.33;70.05;99992.97;5081596;27;71557;-71
2023/10/22 06:11:23;;;;;;;;;4.25;1.75;;;;;14.33;69.69;100005.28;5136398;27;66971;-71
2023/10/22 06:13:48;;;;;;;;;2.25;0.25;;;;;14.31;69.96;100005.38;5114669;27;67042;-71
2023/10/22 06:16:13;;;;;;;;;4.50;1.00;;;;;14.30;69.90;100002.81;5120465;27;45249;-72
2023/10/22 06:18:39;;;;;;;;;2.00;1.00;;;;;14.35;69.73;100011.31;5121622;27;45274;-71
2023/10/22 06:21:14;;;;;;;;;2.00;1.00;;;;;14.34;70.07;100018.38;5118945;27;64714;-71
2023/10/22 06:23:39;;;;;;;;;3.00;1.00;;;;;14.33;69.50;100026.34;5119650;27;46436;-71
2023/10/22 06:26:05;;;;;;;;;3.00;1.25;;;;;14.31;70.00;100028.22;5101970;27;69449;-71
2023/10/22 06:28:31;;;;;;;;;4.25;1.75;;;;;14.29;70.10;100022.16;5103151;27;45375;-71
2023/10/22 06:31:09;;;;;;;;;4.00;0.50;;;;;14.30;69.92;100037.03;5121544;27;45460;-71
2023/10/22 06:33:35;;;;;;;;;2.00;0.75;;;;;14.31;69.78;100036.97;5098481;27;47105;-71
2023/10/22 06:36:18;;;;;;;;;7.75;1.25;;;;;14.32;70.00;100043.91;5099664;27;45698;-71
2023/10/22 06:38:45;;;;;;;;;6.50;1.00;;;;;14.30;70.18;100043.13;5105015;27;45410;-71
2023/10/22 06:41:20;;;;;;;;;4.00;0.75;;;;;14.30;70.16;100048.41;5107920;27;45536;-72
2023/10/22 06:43:47;;;;;;;;;1.75;1.75;;;;;14.34;69.99;100049.97;5111841;27;45410;-72
2023/10/22 06:46:14;;;;;;;;;2.25;1.00;;;;;14.35;69.97;100048.16;5121537;27;45418;-71
2023/10/22 06:48:40;;;;;;;;;1.00;0.00;;;;;14.33;69.97;100042.16;5102805;27;45439;-71
2023/10/22 06:51:15;;;;;;;;;2.00;0.00;;;;;14.33;70.13;100057.94;5102554;27;45418;-71
2023/10/22 06:53:42;;;;;;;;;3.75;0.00;;;;;14.34;69.63;100059.63;5116576;27;46739;-72
2023/10/22 06:56:08;;;;;;;;;4.00;2.00;;;;;14.38;69.85;100066.44;5105322;27;45380;-72
2023/10/22 06:58:35;;;;;;;;;3.00;0.50;;;;;14.39;69.98;100076.84;5107125;27;45434;-71
2023/10/22 07:01:09;;;;;;;;;1.00;1.00;;;;;14.37;70.17;100067.34;5102389;27;45445;-71
2023/10/22 07:03:35;;;;;;;;;2.50;1.25;;;;;14.38;70.29;100080.44;5109601;27;45470;-71
2023/10/22 07:06:00;;;;;;;;;4.25;1.00;;;;;14.35;69.94;100080.59;5099247;27;45804;-71
2023/10/22 07:08:27;;;;;;;;;5.00;0.75;;;;;14.40;70.00;100090.91;5098168;27;69141;-71
2023/10/22 07:10:52;;;;;;;;;1.50;0.00;;;;;14.40;70.16;100096.16;5100066;27;45428;-71
2023/10/22 07:13:20;;;;;;;;;2.25;0.00;;;;;14.39;69.95;100095.28;5107447;27;45351;-71
2023/10/22 07:15:46;;;;;;;;;4.50;1.00;;;;;14.46;69.75;100110.78;5119788;27;45228;-71
2023/10/22 07:18:11;;;;;;;;;4.25;0.75;;;;;14.47;70.21;100108.06;5111728;27;45515;-71
2023/10/22 07:20:36;;;;;;;;;5.25;2.00;;;;;14.46;70.09;100114.25;5098328;27;59238;-71
2023/10/22 07:23:04;;;;;;;;;1.25;1.00;;;;;14.52;69.87;100124.47;5098458;27;73580;-71
2023/10/22 07:25:29;;;;;;;;;6.25;1.00;;;;;14.56;69.77;100127.78;5113521;27;45325;-71
2023/10/22 07:27:54;;;;;;;;;6.50;1.00;;;;;14.60;69.80;100131.97;5098936;27;45295;-71
2023/10/22 07:30:20;;;;;;;;;3.25;2.00;;;;;14.64;69.56;100133.50;5080550;27;60099;-72
2023/10/22 07:32:45;;;;;;;;;2.75;0.50;;;;;14.66;69.78;100142.19;5104383;27;49972;-72
2023/10/22 07:35:14;;;;;;;;;1.75;1.00;;;;;14.68;69.49;100136.81;5118214;27;70832;-72
2023/10/22 07:37:41;;;;;;;;;0.50;0.50;;;;;14.71;69.57;100153.31;5120962;27;45490;-72
2023/10/22 07:40:08;;;;;;;;;3.00;1.00;;;;;14.74;69.56;100150.53;5099868;27;45502;-71
2023/10/22 07:42:34;;;;;;;;;3.00;1.00;;;;;14.76;69.36;100155.72;5117999;27;46116;-72
2023/10/22 07:44:59;;;;;;;;;1.00;1.00;;;;;14.76;69.39;100160.97;5136629;27;45760;-72
2023/10/22 07:47:25;;;;;;;;;3.00;1.00;;;;;14.75;69.17;100159.25;5110683;27;45341;-71
2023/10/22 07:49:51;;;;;;;;;1.50;1.50;;;;;14.78;69.23;100169.66;5099278;27;57455;-72
2023/10/22 07:52:17;;;;;;;;;0.75;0.50;;;;;14.77;69.29;100181.97;5098532;27;47459;-72
2023/10/22 07:54:47;;;;;;;;;2.25;0.75;;;;;14.74;69.34;100168.97;5132061;27;61418;-72
2023/10/22 07:57:12;;;;;;;;;5.00;1.50;;;;;14.74;68.98;100178.66;5081705;27;45225;-72
2023/10/22 07:59:37;;;;;;;;;2.00;1.00;;;;;14.74;69.23;100186.56;5112135;27;45493;-72
2023/10/22 08:02:03;;;;;;;;;4.00;2.50;;;;;14.74;68.92;100178.66;5096995;27;72050;-71
2023/10/22 08:04:28;;;;;;;;;3.00;3.00;;;;;14.71;69.37;100179.66;5117431;27;45457;-71
2023/10/22 08:06:54;;;;;;;;;2.75;2.00;;;;;14.74;69.27;100183.91;5120508;27;61061;-71
2023/10/22 08:09:19;;;;;;;;;2.50;1.00;;;;;14.75;69.21;100183.84;5121185;27;62064;-71
2023/10/22 08:11:44;;;;;;;;;4.50;1.50;;;;;14.84;69.42;100192.16;5121201;27;75304;-72
2023/10/22 08:14:10;;;;;;;;;4.00;1.00;;;;;14.86;69.53;100193.81;5118619;27;71869;-72
2023/10/22 08:16:35;;;;;;;;;4.00;1.50;;;;;14.88;69.55;100185.81;5123080;27;60785;-71
2023/10/22 08:19:00;;;;;;;;;2.50;2.00;;;;;14.99;69.58;100196.63;5105953;27;60871;-72
2023/10/22 08:21:26;;;;;;;;;3.00;1.00;;;;;15.05;69.38;100198.06;5101364;27;45344;-70
2023/10/22 08:23:51;;;;;;;;;2.25;2.00;;;;;15.05;69.03;100196.31;5114496;27;45398;-70
2023/10/22 08:26:16;;;;;;;;;3.00;2.75;;;;;15.07;69.09;100201.47;5114986;27;45256;-70
2023/10/22 08:28:42;;;;;;;;;4.00;2.75;;;;;15.12;69.00;100207.34;5123527;27;45332;-70
2023/10/22 08:31:07;;;;;;;;;4.00;3.00;;;;;15.11;69.32;100198.59;5123114;27;45445;-70
2023/10/22 08:33:32;;;;;;;;;4.25;0.50;;;;;15.10;69.10;100210.09;5116387;27;73828;-69
2023/10/22 08:36:05;;;;;;;;;6.00;2.00;;;;;15.10;68.89;100209.22;5102857;27;45318;-70
2023/10/22 08:38:31;;;;;;;;;5.00;2.00;;;;;15.06;69.25;100205.06;5102077;27;45441;-70
2023/10/22 08:40:58;;;;;;;;;3.00;2.25;;;;;15.09;68.99;100211.00;5108902;27;45408;-70
2023/10/22 08:43:23;;;;;;;;;2.75;2.00;;;;;15.09;69.36;100220.72;5107224;27;45377;-70
2023/10/22 08:45:49;;;;;;;;;2.75;1.00;;;;;15.15;68.91;100223.00;5111431;27;61660;-70
2023/10/22 08:48:18;;;;;;;;;5.75;1.75;;;;;15.17;68.91;100229.03;5101264;27;45308;-70
2023/10/22 08:50:46;;;;;;;;;3.50;2.00;;;;;15.22;69.17;100242.81;5101290;27;45424;-70
2023/10/22 08:53:13;;;;;;;;;6.75;2.00;;;;;15.26;69.19;100244.34;5106142;27;45352;-70
2023/10/22 08:55:43;;;;;;;;;1.50;1.00;;;;;15.31;69.14;100249.38;5101227;27;45296;-69
2023/10/22 08:58:08;;;;;;;;;6.00;2.00;;;;;15.30;68.97;100248.53;5106198;27;45483;-70
2023/10/22 09:00:34;;;;;;;;;2.50;1.00;;;;;15.30;68.81;100256.44;5114855;27;58095;-71
2023/10/22 09:03:00;;;;;;;;;2.75;0.00;;;;;15.32;69.04;100266.91;5114167;27;45418;-69
2023/10/22 09:05:25;;;;;;;;;1.00;1.00;;;;;15.31;68.66;100262.56;5100152;27;63855;-70
2023/10/22 09:07:52;;;;;;;;;3.25;0.00;;;;;15.32;68.69;100261.63;5099455;27;72317;-70
2023/10/22 09:10:26;;;;;;;;;4.00;2.25;;;;;15.36;68.46;100271.06;5100762;27;46206;-71
2023/10/22 09:12:53;;;;;;;;;3.75;2.00;;;;;15.42;68.57;100272.50;5105724;27;45390;-71
2023/10/22 09:15:18;;;;;;;;;3.25;2.00;;;;;15.46;68.59;100274.06;5121333;27;45435;-71
2023/10/22 09:17:43;;;;;;;;;1.00;1.00;;;;;15.50;68.72;100270.31;5103296;27;45260;-71
2023/10/22 09:20:21;;;;;;;;;6.75;2.00;;;;;15.54;68.18;100285.88;5100779;27;45364;-71
2023/10/22 09:22:46;;;;;;;;;2.00;1.00;;;;;15.56;67.78;100281.38;5106059;27;45571;-71
2023/10/22 09:25:12;;;;;;;;;4.00;2.50;;;;;15.63;67.86;100289.78;5120415;27;53031;-71
2023/10/22 09:27:39;;;;;;;;;3.25;2.00;;;;;15.67;67.95;100280.78;5121132;27;45208;-71
2023/10/22 09:30:05;;;;;;;;;2.75;1.00;;;;;15.71;67.73;100284.94;5122551;27;46325;-71
2023/10/22 09:32:30;;;;;;;;;2.00;1.00;;;;;15.74;67.77;100282.19;5118164;27;45481;-70
2023/10/22 09:35:11;;;;;;;;;4.00;2.00;;;;;15.73;67.01;100280.44;5110113;27;45521;-71
2023/10/22 09:37:54;;;;;;;;;2.50;2.00;;;;;15.72;67.27;100289.31;5100644;27;45252;-71
2023/10/22 09:40:21;;;;;;;;;3.00;2.00;;;;;15.75;67.02;100289.16;5119358;27;46566;-71
2023/10/22 09:42:50;;;;;;;;;4.75;1.00;;;;;15.84;65.88;100295.69;5121382;27;45602;-71
2023/10/22 09:45:17;;;;;;;;;3.25;2.50;;;;;15.85;66.68;100284.22;5120887;27;45358;-71
2023/10/22 09:47:45;;;;;;;;;2.50;2.00;;;;;15.88;66.27;100283.19;5110375;27;45300;-71
2023/10/22 09:50:18;;;;;;;;;2.00;1.00;;;;;15.84;66.27;100282.50;5100088;27;46406;-71
2023/10/22 09:52:44;;;;;;;;;6.00;2.00;;;;;15.79;66.40;100286.34;5105572;27;45316;-71
2023/10/22 09:55:15;;;;;;;;;3.50;1.25;;;;;15.81;66.31;100289.75;5102956;27;45450;-71
2023/10/22 09:57:42;;;;;;;;;4.00;1.75;;;;;15.83;65.87;100285.22;5103972;27;45663;-71
2023/10/22 10:00:12;;;;;;;;;6.50;1.50;;;;;15.87;65.45;100292.91;5101536;27;45418;-71
2023/10/22 10:02:38;;;;;;;;;4.50;1.25;;;;;15.88;65.56;100288.47;5102495;27;45415;-71
2023/10/22 10:05:06;;;;;;;;;1.25;0.50;;;;;15.91;65.76;100290.94;5100233;27;45495;-71
2023/10/22 10:07:31;;;;;;;;;2.50;1.00;;;;;15.99;65.71;100293.13;5082715;27;45801;-71
2023/10/22 10:09:57;;;;;;;;;1.25;1.00;;;;;16.06;65.05;100291.84;5098699;27;74595;-71
2023/10/22 10:12:24;;;;;;;;;1.00;1.00;;;;;16.11;64.98;100303.88;5100438;27;65447;-71
2023/10/22 10:14:50;;;;;;;;;4.00;1.00;;;;;16.20;64.96;100310.41;5101316;27;45433;-71
2023/10/22 10:17:18;;;;;;;;;1.00;1.00;;;;;16.22;65.21;100311.16;5099685;27;45295;-71
2023/10/22 10:19:43;;;;;;;;;5.50;1.75;;;;;16.30;64.30;100313.34;5101238;27;46129;-71
2023/10/22 10:22:09;;;;;;;;;1.75;1.75;;;;;16.32;64.22;100309.69;5100656;27;45345;-71
2023/10/22 10:24:34;;;;;;;;;4.25;1.50;;;;;16.41;64.48;100315.38;5112854;27;45354;-70
2023/10/22 10:27:00;;;;;;;;;2.25;0.50;;;;;16.44;64.12;100310.75;5119005;27;45511;-71
2023/10/22 10:29:27;;;;;;;;;3.67;1.67;;;;;16.46;63.48;100310.69;5120901;27;45369;-71
2023/10/22 10:31:53;;;;;;;;;0.50;0.25;;;;;16.44;62.89;100312.56;5102716;27;45360;-71
2023/10/22 10:34:36;;;;;;;;;2.25;1.50;;;;;16.42;62.79;100310.00;5116631;27;45422;-71
2023/10/22 10:37:12;;;;;;;;;5.50;2.25;;;;;16.46;62.20;100314.16;5104507;27;45455;-71
2023/10/22 10:39:42;;;;;;;;;5.25;2.00;;;;;16.49;60.31;100315.78;5100446;27;46227;-71
2023/10/22 10:42:10;;;;;;;;;5.00;3.50;;;;;16.56;60.19;100314.47;5099004;27;45251;-71
2023/10/22 10:44:54;;;;;;;;;5.25;2.75;;;;;16.68;61.02;100319.03;5119626;27;45425;-71
2023/10/22 10:47:19;;;;;;;;;2.25;1.50;;;;;16.79;61.06;100314.94;5121236;27;45478;-71
2023/10/22 10:49:53;;;;;;;;;3.00;1.00;;;;;16.89;61.47;100316.94;5121214;27;45560;-71
2023/10/22 10:52:18;;;;;;;;;1.25;0.50;;;;;17.02;61.07;100317.06;5119422;27;45640;-71
2023/10/22 10:55:01;;;;;;;;;7.25;1.50;;;;;17.19;60.39;100329.25;5104023;27;59211;-71
2023/10/22 10:57:36;;;;;;;;;1.25;0.75;;;;;17.30;60.20;100315.38;5099391;27;45484;-69
2023/10/22 11:00:04;;;;;;;;;3.00;1.75;;;;;17.41;60.41;100325.28;5119257;27;45752;-70
2023/10/22 11:02:30;;;;;;;;;1.75;1.75;;;;;17.40;57.38;100327.06;5117128;27;45897;-70
2023/10/22 11:04:56;;;;;;;;;3.00;1.25;;;;;17.40;59.56;100336.81;5119823;27;45399;-71
2023/10/22 11:07:21;;;;;;;;;3.75;2.50;;;;;17.45;58.98;100334.72;5120907;27;45526;-71
2023/10/22 11:09:47;;;;;;;;;1.75;1.75;;;;;17.58;59.55;100338.31;5102104;27;45973;-72
2023/10/22 11:12:13;;;;;;;;;8.50;2.00;;;;;17.70;58.11;100331.38;5118372;27;45491;-71
2023/10/22 11:14:38;;;;;;;;;1.75;0.75;;;;;17.77;57.91;100327.41;5082283;27;45353;-70
2023/10/22 11:17:04;;;;;;;;;5.00;1.75;;;;;17.81;57.18;100334.22;5099134;27;45341;-71
2023/10/22 11:19:31;;;;;;;;;1.50;1.25;;;;;17.78;55.82;100322.97;5097997;27;47003;-71
2023/10/22 11:21:56;;;;;;;;;2.25;1.00;;;;;17.86;56.34;100333.09;5099004;27;45634;-70
2023/10/22 11:24:29;;;;;;;;;5.50;1.75;;;;;17.79;55.18;100319.38;5115569;27;45368;-71
2023/10/22 11:26:56;;;;;;;;;6.25;3.75;;;;;17.82;56.85;100322.66;5106550;27;45176;-71